createdAt,value
2022-11-17T00:01:08.941Z,8.18
2022-11-17T00:05:54.277Z,9.40
2022-11-17T00:10:41.990Z,8.13
2022-11-17T00:15:27.360Z,9.93
2022-11-17T00:20:26.622Z,9.63
2022-11-17T00:25:12.223Z,10.10
2022-11-17T00:29:59.960Z,9.55
2022-11-17T00:34:45.360Z,9.93
2022-11-17T00:39:30.434Z,8.55
2022-11-17T00:44:16.321Z,9.20
2022-11-17T00:49:03.963Z,9.55
2022-11-17T00:53:49.566Z,9.35
2022-11-17T00:58:35.583Z,8.43
2022-11-17T01:03:20.887Z,8.60
2022-11-17T01:08:08.820Z,8.82
2022-11-17T01:12:54.127Z,9.07
2022-11-17T01:17:39.169Z,8.20
2022-11-17T01:22:24.489Z,7.68
2022-11-17T01:27:12.135Z,7.88
2022-11-17T01:31:57.645Z,7.50
2022-11-17T01:36:56.756Z,7.18
2022-11-17T01:41:42.039Z,7.35
2022-11-17T01:46:35.985Z,7.65
2022-11-17T01:51:22.336Z,7.72
2022-11-17T01:56:12.701Z,7.38
2022-11-17T02:00:58.953Z,6.70
2022-11-17T02:05:54.783Z,7.80
2022-11-17T02:10:40.749Z,7.80
2022-11-17T02:15:25.958Z,7.25
2022-11-17T02:20:15.887Z,8.73
2022-11-17T02:25:27.129Z,7.70
2022-11-17T02:30:18.400Z,8.90
2022-11-17T02:35:14.827Z,7.18
2022-11-17T02:40:05.664Z,8.18
2022-11-17T02:44:58.055Z,7.32
2022-11-17T02:49:50.078Z,7.72
2022-11-17T02:59:25.195Z,8.07
2022-11-17T03:04:32.371Z,9.50
2022-11-17T03:09:29.005Z,9.45
2022-11-17T03:14:22.572Z,10.13
2022-11-17T03:19:14.733Z,9.10
2022-11-17T03:24:06.928Z,8.32
2022-11-17T03:28:58.032Z,7.72
2022-11-17T03:33:46.387Z,7.07
2022-11-17T03:38:36.067Z,6.80
2022-11-17T03:43:23.410Z,5.90
2022-11-17T03:48:17.319Z,6.25
2022-11-17T03:53:03.546Z,7.15
2022-11-17T03:57:55.936Z,7.93
2022-11-17T04:07:31.348Z,7.88
2022-11-17T04:12:28.724Z,7.35
2022-11-17T04:17:14.040Z,8.98
2022-11-17T04:21:59.160Z,8.38
2022-11-17T04:26:59.678Z,8.45
2022-11-17T04:31:44.994Z,8.70
2022-11-17T04:36:32.340Z,7.95
2022-11-17T04:41:31.886Z,8.90
2022-11-17T04:46:20.119Z,9.32
2022-11-17T04:51:05.409Z,8.75
2022-11-17T04:55:50.700Z,8.73
2022-11-17T05:00:36.016Z,7.90
2022-11-17T05:05:23.672Z,6.25
2022-11-17T05:10:14.848Z,6.68
2022-11-17T05:14:59.884Z,5.80
2022-11-17T05:19:47.287Z,6.22
2022-11-17T05:24:34.921Z,6.22
2022-11-17T05:29:22.273Z,6.53
2022-11-17T05:34:08.924Z,6.25
2022-11-17T05:38:54.457Z,6.47
2022-11-17T05:43:42.260Z,6.18
2022-11-17T05:48:27.820Z,7.00
2022-11-17T05:53:12.888Z,6.35
2022-11-17T05:58:01.501Z,6.30
2022-11-17T06:02:52.819Z,5.78
2022-11-17T06:07:39.087Z,6.32
2022-11-17T06:12:24.388Z,6.45
2022-11-17T06:17:16.343Z,7.13
2022-11-17T06:22:13.354Z,7.32
2022-11-17T06:26:59.085Z,5.32
2022-11-17T06:31:45.829Z,5.10
2022-11-17T06:36:31.789Z,5.00
2022-11-17T06:41:19.387Z,5.03
2022-11-17T06:46:06.779Z,4.82
2022-11-17T06:50:51.825Z,4.85
2022-11-17T06:55:38.122Z,5.03
2022-11-17T07:00:26.360Z,4.25
2022-11-17T07:05:12.479Z,3.80
2022-11-17T07:09:57.897Z,4.60
2022-11-17T07:14:42.935Z,3.75
2022-11-17T07:19:30.895Z,3.97
2022-11-17T07:24:15.931Z,7.40
2022-11-17T07:29:01.378Z,6.45
2022-11-17T07:33:46.413Z,5.65
2022-11-17T07:38:37.106Z,4.60
2022-11-17T07:43:22.594Z,4.68
2022-11-17T07:48:09.183Z,3.95
2022-11-17T07:52:55.086Z,3.97
2022-11-17T07:57:43.079Z,4.10
2022-11-17T08:02:28.689Z,6.47
2022-11-17T08:07:14.231Z,4.40
2022-11-17T08:11:59.339Z,5.30
2022-11-17T08:16:47.233Z,5.18
2022-11-17T08:21:32.626Z,6.43
2022-11-17T08:26:18.028Z,4.75
2022-11-17T08:31:04.445Z,4.93
2022-11-17T08:35:52.357Z,5.05
2022-11-17T08:40:37.403Z,5.38
2022-11-17T08:45:22.794Z,4.25
2022-11-17T08:50:09.369Z,4.45
2022-11-17T08:54:57.456Z,5.32
2022-11-17T08:59:42.546Z,4.72
2022-11-17T09:04:27.889Z,4.55
2022-11-17T09:09:12.963Z,5.18
2022-11-17T09:14:00.940Z,4.47
2022-11-17T09:18:46.342Z,4.63
2022-11-17T09:23:32.334Z,5.07
2022-11-17T09:28:17.497Z,3.75
2022-11-17T09:33:05.530Z,4.43
2022-11-17T09:37:50.793Z,4.82
2022-11-17T09:42:41.522Z,4.93
2022-11-17T09:47:35.717Z,6.05
2022-11-17T09:52:27.244Z,4.95
2022-11-17T09:57:23.222Z,6.45
2022-11-17T10:02:13.093Z,5.68
2022-11-17T10:07:00.474Z,4.35
2022-11-17T10:11:49.466Z,4.45
2022-11-17T10:16:34.845Z,4.80
2022-11-17T10:21:19.909Z,4.10
2022-11-17T10:26:11.541Z,4.55
2022-11-17T10:31:02.995Z,3.30
2022-11-17T10:35:58.239Z,3.00
2022-11-17T10:40:52.179Z,2.53
2022-11-17T10:45:37.581Z,2.70
2022-11-17T10:50:27.958Z,2.92
2022-11-17T10:55:31.766Z,3.72
2022-11-17T11:00:27.045Z,3.70
2022-11-17T11:05:14.853Z,3.88
2022-11-17T11:10:07.437Z,3.65
2022-11-17T11:14:57.318Z,4.40
2022-11-17T11:19:44.534Z,3.35
2022-11-17T11:24:39.480Z,3.35
2022-11-17T11:29:36.619Z,3.25
2022-11-17T11:34:44.084Z,2.35
2022-11-17T11:39:43.330Z,2.55
2022-11-17T11:44:58.637Z,2.30
2022-11-17T11:49:48.798Z,2.38
2022-11-17T11:54:40.476Z,3.40
2022-11-17T12:04:32.557Z,4.95
2022-11-17T12:09:36.262Z,4.55
2022-11-17T12:14:22.380Z,4.15
2022-11-17T12:19:50.982Z,4.03
2022-11-17T12:24:41.224Z,4.32
2022-11-17T12:29:36.307Z,3.33
2022-11-17T12:34:25.772Z,3.30
2022-11-17T12:39:49.397Z,3.40
2022-11-17T12:44:52.713Z,3.47
2022-11-17T12:49:48.991Z,3.88
2022-11-17T12:54:45.250Z,2.97
2022-11-17T13:00:07.682Z,3.45
2022-11-17T13:04:58.758Z,2.80
2022-11-17T13:09:46.735Z,3.17
2022-11-17T13:14:33.812Z,4.93
2022-11-17T13:19:39.977Z,3.72
2022-11-17T13:24:33.173Z,3.60
2022-11-17T13:29:24.427Z,3.85
2022-11-17T13:34:17.031Z,2.55
2022-11-17T13:39:03.335Z,2.92
2022-11-17T13:43:49.862Z,2.72
2022-11-17T13:48:39.902Z,4.05
2022-11-17T13:53:28.598Z,3.03
2022-11-17T13:58:27.573Z,3.63
2022-11-17T14:03:38.306Z,3.67
2022-11-17T14:08:29.869Z,4.20
2022-11-17T14:13:30.124Z,2.75
2022-11-17T14:18:28.491Z,2.75
2022-11-17T14:23:21.902Z,3.60
2022-11-17T14:28:07.372Z,3.92
2022-11-17T14:32:52.385Z,4.20
2022-11-17T14:37:37.903Z,4.28
2022-11-17T14:42:25.633Z,4.25
2022-11-17T14:47:11.069Z,3.95
2022-11-17T14:51:59.305Z,4.25
2022-11-17T14:56:44.659Z,3.60
2022-11-17T15:01:34.850Z,3.28
2022-11-17T15:06:20.566Z,3.15
2022-11-17T15:11:06.253Z,4.20
2022-11-17T15:15:51.513Z,4.22
2022-11-17T15:20:39.117Z,4.03
2022-11-17T15:25:24.416Z,3.65
2022-11-17T15:30:11.203Z,3.65
2022-11-17T15:34:56.559Z,3.08
2022-11-17T15:39:44.207Z,2.83
2022-11-17T15:44:29.555Z,3.08
2022-11-17T15:49:15.040Z,2.67
2022-11-17T15:54:02.288Z,3.05
2022-11-17T15:58:51.293Z,3.33
2022-11-17T16:03:36.592Z,4.00
2022-11-17T16:08:21.879Z,4.22
2022-11-17T16:13:07.931Z,4.47
2022-11-17T16:17:55.995Z,4.00
2022-11-17T16:22:41.279Z,4.20
2022-11-17T16:27:26.313Z,3.40
2022-11-17T16:32:11.562Z,3.35
2022-11-17T16:36:59.453Z,3.60
2022-11-17T16:41:46.076Z,4.05
2022-11-17T16:46:33.051Z,3.70
2022-11-17T16:51:18.694Z,3.28
2022-11-17T16:56:10.007Z,2.70
2022-11-17T17:00:55.170Z,2.90
2022-11-17T17:05:41.287Z,3.85
2022-11-17T17:10:26.808Z,2.75
2022-11-17T17:15:15.102Z,3.53
2022-11-17T17:20:00.142Z,3.90
2022-11-17T17:24:45.525Z,2.75
2022-11-17T17:29:30.554Z,2.70
2022-11-17T17:34:18.521Z,2.72
2022-11-17T17:39:05.036Z,2.90
2022-11-17T17:43:51.592Z,2.50
2022-11-17T17:48:38.272Z,3.30
2022-11-17T17:53:27.885Z,3.13
2022-11-17T17:58:13.404Z,3.47
2022-11-17T18:02:58.569Z,2.95
2022-11-17T18:07:44.061Z,2.97
2022-11-17T18:12:31.683Z,3.58
2022-11-17T18:17:17.056Z,3.63
2022-11-17T18:22:02.635Z,2.20
2022-11-17T18:26:47.728Z,2.03
2022-11-17T18:31:37.450Z,2.30
2022-11-17T18:36:22.613Z,2.75
2022-11-17T18:41:09.946Z,2.72
2022-11-17T18:45:55.514Z,3.25
2022-11-17T18:51:17.233Z,2.97
2022-11-17T18:55:52.977Z,3.22
2022-11-17T19:00:38.064Z,2.72
2022-11-17T19:05:23.973Z,3.30
2022-11-17T19:10:12.566Z,3.95
2022-11-17T19:14:58.195Z,3.22
2022-11-17T19:19:43.311Z,2.33
2022-11-17T19:24:28.797Z,2.45
2022-11-17T19:29:17.799Z,2.67
2022-11-17T19:34:03.253Z,2.10
2022-11-17T19:38:52.239Z,2.65
2022-11-17T19:43:41.842Z,2.55
2022-11-17T19:48:33.569Z,1.95
2022-11-17T19:53:18.562Z,2.50
2022-11-17T19:58:04.044Z,2.70
2022-11-17T20:02:49.130Z,2.20
2022-11-17T20:07:37.136Z,3.80
2022-11-17T20:12:22.732Z,2.35
2022-11-17T20:17:08.134Z,2.70
2022-11-17T20:21:53.169Z,2.38
2022-11-17T20:26:43.159Z,2.90
2022-11-17T20:31:30.759Z,3.15
2022-11-17T20:36:18.308Z,2.35
2022-11-17T20:41:04.058Z,2.47
2022-11-17T20:45:53.645Z,2.05
2022-11-17T20:50:38.718Z,2.30
2022-11-17T20:55:24.168Z,1.80
2022-11-17T21:00:10.860Z,1.60
2022-11-17T21:04:59.128Z,1.48
2022-11-17T21:09:44.165Z,1.90
2022-11-17T21:14:30.807Z,2.20
2022-11-17T21:19:16.883Z,2.30
2022-11-17T21:24:05.352Z,3.25
2022-11-17T21:28:50.442Z,1.85
2022-11-17T21:33:35.873Z,2.15
2022-11-17T21:38:20.892Z,2.17
2022-11-17T21:43:08.794Z,2.53
2022-11-17T21:47:59.122Z,2.75
2022-11-17T21:52:44.774Z,2.42
2022-11-17T21:57:30.177Z,3.05
2022-11-17T22:02:17.858Z,2.67
2022-11-17T22:07:03.164Z,2.70
2022-11-17T22:11:48.231Z,1.88
2022-11-17T22:16:33.832Z,2.03
2022-11-17T22:21:21.786Z,1.60
2022-11-17T22:26:09.201Z,1.65
2022-11-17T22:30:55.728Z,2.28
2022-11-17T22:35:40.749Z,1.80
2022-11-17T22:40:28.653Z,1.88
2022-11-17T22:45:14.023Z,2.13
2022-11-17T22:49:59.351Z,2.13
2022-11-17T22:54:44.615Z,1.85
2022-11-17T22:59:33.539Z,2.10
2022-11-17T23:04:19.372Z,2.28
2022-11-17T23:09:04.812Z,2.00
2022-11-17T23:13:49.823Z,1.70
2022-11-17T23:18:38.343Z,2.38
2022-11-17T23:23:23.753Z,1.70
2022-11-17T23:28:09.068Z,2.58
2022-11-17T23:32:57.545Z,1.75
2022-11-17T23:37:45.242Z,2.42
2022-11-17T23:42:32.700Z,2.22
2022-11-17T23:47:18.465Z,2.13
2022-11-17T23:52:04.252Z,2.60
2022-11-17T23:56:53.289Z,2.13
